Time;durP1;ratioP1;P1;durP2;ratioP2;P2;SDS_P1;SDS_P2;PMS_P1;PMS_P2;Temp;Humidity;BMP_temperature;BMP_pressure;BME280_temperature;BME280_humidity;BME280_pressure;Samples;Min_cycle;Max_cycle;Signal;HPM_P1;HPM_P2
2023/07/07 00:02:00;;;;;;;3.00;2.80;;;13.70;99.90;;;;;;5011913;28;20544;-71
2023/07/07 00:04:27;;;;;;;4.20;3.15;;;13.70;99.90;;;;;;5012254;28;20057;-71
2023/07/07 00:06:53;;;;;;;3.08;2.70;;;13.60;99.90;;;;;;5012435;28;20053;-71
2023/07/07 00:09:19;;;;;;;4.65;3.63;;;13.60;99.90;;;;;;5012799;28;20435;-71
2023/07/07 00:11:46;;;;;;;3.42;3.13;;;13.60;99.90;;;;;;5013729;28;20136;-72
2023/07/07 00:14:13;;;;;;;3.53;3.22;;;13.50;99.90;;;;;;5012913;28;20065;-71
2023/07/07 00:16:40;;;;;;;5.93;3.40;;;13.50;99.90;;;;;;4978788;28;20543;-71
2023/07/07 00:19:10;;;;;;;4.43;3.50;;;13.50;99.90;;;;;;5012680;28;20402;-71
2023/07/07 00:21:40;;;;;;;4.90;3.20;;;13.50;99.90;;;;;;5012077;28;20136;-72
2023/07/07 00:24:07;;;;;;;3.38;3.00;;;13.40;99.90;;;;;;5012187;28;20104;-72
2023/07/07 00:26:34;;;;;;;3.97;3.58;;;13.40;99.90;;;;;;5014348;28;20092;-71
2023/07/07 00:28:59;;;;;;;4.35;3.95;;;13.30;99.90;;;;;;5016158;28;20045;-71
2023/07/07 00:31:26;;;;;;;2.72;2.50;;;13.20;99.90;;;;;;4998777;28;20443;-70
2023/07/07 00:33:52;;;;;;;3.92;3.53;;;13.20;99.90;;;;;;5015750;28;20050;-71
2023/07/07 00:36:18;;;;;;;4.78;2.90;;;13.10;99.90;;;;;;5016005;28;20060;-71
2023/07/07 00:38:43;;;;;;;2.92;2.72;;;13.20;99.90;;;;;;5015556;28;20045;-71
2023/07/07 00:41:10;;;;;;;4.18;2.80;;;13.20;99.90;;;;;;5015646;28;20053;-71
2023/07/07 00:43:36;;;;;;;5.68;3.53;;;13.20;99.90;;;;;;5015524;28;20431;-71
2023/07/07 00:46:03;;;;;;;3.42;3.13;;;13.10;99.90;;;;;;5015483;28;20054;-70
2023/07/07 00:48:44;;;;;;;4.80;2.88;;;13.10;99.90;;;;;;5015303;28;20050;-70
2023/07/07 00:51:14;;;;;;;3.55;3.08;;;13.10;99.90;;;;;;5016060;28;20053;-70
2023/07/07 00:53:41;;;;;;;3.38;2.92;;;13.10;99.90;;;;;;5015247;28;20117;-70
2023/07/07 00:56:14;;;;;;;3.83;3.40;;;13.00;99.90;;;;;;5015125;28;20045;-71
2023/07/07 00:58:42;;;;;;;3.45;3.15;;;13.00;99.90;;;;;;5015709;28;20053;-71
2023/07/07 01:01:13;;;;;;;3.65;3.35;;;12.90;99.90;;;;;;5014900;28;20054;-71
2023/07/07 01:03:43;;;;;;;3.85;3.40;;;12.90;99.90;;;;;;5015269;28;20526;-71
2023/07/07 01:06:14;;;;;;;3.88;3.47;;;12.80;99.90;;;;;;5015108;28;20136;-71
2023/07/07 01:08:42;;;;;;;6.15;3.22;;;12.80;99.90;;;;;;5015689;28;20073;-70
2023/07/07 01:11:08;;;;;;;4.05;3.35;;;12.70;99.90;;;;;;5014770;28;20129;-71
2023/07/07 01:13:35;;;;;;;4.00;3.45;;;12.70;99.90;;;;;;5014583;28;20431;-70
2023/07/07 01:16:14;;;;;;;3.75;3.08;;;12.70;99.90;;;;;;5015326;28;20045;-71
2023/07/07 01:18:45;;;;;;;3.33;2.90;;;12.70;99.90;;;;;;5015227;28;20129;-71
2023/07/07 01:21:34;;;;;;;8.05;3.47;;;12.70;99.90;;;;;;5014633;28;20046;-72
2023/07/07 01:24:19;;;;;;;3.80;3.20;;;12.70;99.90;;;;;;5009120;28;20054;-71
2023/07/07 01:26:56;;;;;;;4.03;3.58;;;12.70;99.90;;;;;;5014585;28;20101;-71
2023/07/07 01:29:50;;;;;;;5.13;3.20;;;12.70;99.90;;;;;;5014623;28;20045;-70
2023/07/07 01:32:21;;;;;;;3.20;2.83;;;12.60;99.90;;;;;;5015247;28;20057;-71
2023/07/07 01:34:47;;;;;;;4.10;3.20;;;12.70;99.90;;;;;;4997439;28;20104;-72
2023/07/07 01:37:14;;;;;;;3.42;3.13;;;12.70;99.90;;;;;;5014054;28;20045;-71
2023/07/07 01:39:42;;;;;;;4.53;3.05;;;12.80;99.90;;;;;;5014635;28;20104;-70
2023/07/07 01:42:15;;;;;;;7.10;3.70;;;12.70;99.90;;;;;;5014822;28;20068;-71
2023/07/07 01:45:07;;;;;;;3.60;3.03;;;12.60;99.90;;;;;;5014622;28;20046;-71
2023/07/07 01:47:36;;;;;;;3.47;3.15;;;12.50;99.90;;;;;;4997571;28;20054;-71
2023/07/07 01:50:23;;;;;;;3.65;3.15;;;12.50;99.90;;;;;;5014695;28;20049;-70
2023/07/07 01:52:53;;;;;;;3.85;3.47;;;12.60;99.90;;;;;;5014753;28;20467;-71
2023/07/07 01:55:24;;;;;;;4.28;3.67;;;12.60;99.90;;;;;;5014738;28;20050;-71
2023/07/07 01:57:56;;;;;;;4.38;3.08;;;12.60;99.90;;;;;;5014799;28;20054;-71
2023/07/07 02:00:24;;;;;;;2.10;1.98;;;12.60;99.90;;;;;;5014496;28;20049;-70
2023/07/07 02:02:52;;;;;;;6.00;2.88;;;12.60;99.90;;;;;;5014230;28;20099;-71
2023/07/07 02:05:18;;;;;;;3.97;2.65;;;12.60;99.90;;;;;;5014098;28;20490;-71
2023/07/07 02:07:43;;;;;;;3.15;2.80;;;12.50;99.90;;;;;;5014598;28;20545;-71
2023/07/07 02:10:10;;;;;;;3.13;2.83;;;12.50;99.90;;;;;;4997210;28;20062;-71
2023/07/07 02:12:35;;;;;;;3.63;3.33;;;12.40;99.90;;;;;;5014115;28;20060;-70
2023/07/07 02:15:01;;;;;;;4.38;3.35;;;12.40;99.90;;;;;;5014685;28;20041;-71
2023/07/07 02:17:28;;;;;;;5.70;3.65;;;12.50;99.90;;;;;;5014062;28;20046;-71
2023/07/07 02:19:55;;;;;;;3.25;2.95;;;12.40;99.90;;;;;;5013076;28;20049;-71
2023/07/07 02:22:21;;;;;;;5.15;3.40;;;12.40;99.90;;;;;;5014764;28;20438;-71
2023/07/07 02:24:46;;;;;;;3.78;3.13;;;12.40;99.90;;;;;;4996621;28;20054;-71
2023/07/07 02:27:12;;;;;;;3.83;3.30;;;12.30;99.90;;;;;;5013846;28;20042;-71
2023/07/07 02:29:38;;;;;;;3.65;3.20;;;12.30;99.90;;;;;;5013730;28;20044;-70
2023/07/07 02:32:05;;;;;;;3.38;3.05;;;12.20;99.90;;;;;;5013921;28;20085;-71
2023/07/07 02:34:31;;;;;;;4.32;3.10;;;12.20;99.90;;;;;;4995876;28;20057;-71
2023/07/07 02:36:57;;;;;;;4.85;3.65;;;12.20;99.90;;;;;;5014215;28;20050;-70
2023/07/07 02:39:23;;;;;;;3.65;3.17;;;12.20;99.90;;;;;;5013732;28;20050;-70
2023/07/07 02:41:49;;;;;;;5.18;3.20;;;12.20;99.90;;;;;;5013833;28;20418;-70
2023/07/07 02:44:15;;;;;;;4.57;3.88;;;12.10;99.90;;;;;;5013897;28;20048;-71
2023/07/07 02:46:41;;;;;;;4.57;3.45;;;12.10;99.90;;;;;;5013739;28;20045;-70
2023/07/07 02:49:06;;;;;;;3.15;2.95;;;12.10;99.90;;;;;;5012602;28;20045;-71
2023/07/07 02:51:32;;;;;;;3.67;3.10;;;12.10;99.90;;;;;;4995997;28;20180;-71
2023/07/07 02:53:58;;;;;;;5.25;4.13;;;12.10;99.90;;;;;;5013242;28;20479;-70
2023/07/07 02:56:23;;;;;;;4.35;3.50;;;12.00;99.90;;;;;;4995925;28;20103;-70
2023/07/07 02:58:49;;;;;;;4.60;3.55;;;12.00;99.90;;;;;;5013768;28;20231;-70
2023/07/07 03:01:19;;;;;;;4.88;3.80;;;12.00;99.90;;;;;;5012969;28;20061;-71
2023/07/07 03:03:49;;;;;;;5.00;3.90;;;12.00;99.90;;;;;;5013622;28;20041;-70
2023/07/07 03:06:22;;;;;;;8.38;5.28;;;12.00;99.90;;;;;;5013326;28;20046;-70
2023/07/07 03:08:48;;;;;;;5.53;4.53;;;12.00;99.90;;;;;;5013018;28;20052;-71
2023/07/07 03:11:17;;;;;;;5.85;5.10;;;12.00;99.90;;;;;;4996012;28;20396;-71
2023/07/07 03:13:44;;;;;;;8.38;6.22;;;11.90;99.90;;;;;;5013264;28;20038;-71
2023/07/07 03:16:20;;;;;;;5.57;5.07;;;11.90;99.90;;;;;;5013009;28;20053;-71
2023/07/07 03:18:52;;;;;;;7.75;6.18;;;12.00;99.90;;;;;;4995766;28;20116;-70
2023/07/07 03:21:19;;;;;;;9.23;6.40;;;12.00;99.90;;;;;;5013107;28;20053;-71
2023/07/07 03:23:45;;;;;;;9.85;7.25;;;12.00;99.90;;;;;;5012876;28;20516;-71
2023/07/07 03:26:16;;;;;;;12.57;7.78;;;11.90;99.90;;;;;;5013365;28;20054;-71
2023/07/07 03:28:43;;;;;;;10.45;8.45;;;12.00;99.90;;;;;;5013389;28;20067;-71
2023/07/07 03:31:29;;;;;;;9.55;6.57;;;12.00;99.90;;;;;;5013330;28;20050;-70
2023/07/07 03:33:57;;;;;;;9.77;7.70;;;12.00;99.90;;;;;;5012976;28;20080;-70
2023/07/07 03:36:26;;;;;;;9.82;7.38;;;12.00;99.90;;;;;;4995203;28;20434;-71
2023/07/07 03:38:55;;;;;;;13.20;9.48;;;12.10;99.90;;;;;;5013234;28;20046;-71
2023/07/07 03:41:22;;;;;;;11.27;9.50;;;12.10;99.90;;;;;;5012493;28;20483;-72
2023/07/07 03:43:48;;;;;;;8.27;7.30;;;12.20;99.90;;;;;;5012597;28;20053;-71
2023/07/07 03:46:16;;;;;;;10.30;8.63;;;12.20;99.90;;;;;;5012296;28;20051;-71
2023/07/07 03:48:43;;;;;;;12.98;9.90;;;12.20;99.90;;;;;;5012513;28;20108;-70
2023/07/07 03:51:09;;;;;;;10.82;8.82;;;12.30;99.90;;;;;;5012456;28;20128;-71
2023/07/07 03:53:36;;;;;;;12.35;8.77;;;12.30;99.90;;;;;;5012172;28;20050;-71
2023/07/07 03:56:03;;;;;;;13.82;10.02;;;12.40;99.90;;;;;;4994993;28;20104;-71
2023/07/07 03:58:29;;;;;;;12.52;9.45;;;12.40;99.90;;;;;;5012111;28;20093;-71
2023/07/07 04:01:02;;;;;;;13.10;9.32;;;12.50;99.90;;;;;;5013820;28;20045;-71
2023/07/07 04:03:28;;;;;;;11.07;9.90;;;12.50;99.90;;;;;;5017034;28;20046;-71
2023/07/07 04:05:55;;;;;;;13.88;8.95;;;12.60;99.90;;;;;;4999668;28;20501;-70
2023/07/07 04:08:25;;;;;;;12.60;7.80;;;12.60;99.90;;;;;;5016400;28;20096;-70
2023/07/07 04:11:04;;;;;;;11.55;8.95;;;12.70;99.90;;;;;;5016329;28;20045;-70
2023/07/07 04:13:31;;;;;;;8.05;6.90;;;12.70;99.90;;;;;;4998832;28;20045;-70
2023/07/07 04:16:18;;;;;;;8.88;7.97;;;12.70;99.90;;;;;;5016757;28;20050;-71
2023/07/07 04:18:45;;;;;;;8.73;6.25;;;12.70;99.90;;;;;;5016521;28;20117;-70
2023/07/07 04:21:14;;;;;;;7.53;6.72;;;12.80;99.90;;;;;;5016154;28;20050;-70
2023/07/07 04:23:42;;;;;;;7.40;6.30;;;12.80;99.90;;;;;;5016404;28;20038;-70
2023/07/07 04:26:09;;;;;;;7.75;6.95;;;12.80;99.90;;;;;;5016509;28;20089;-71
2023/07/07 04:28:36;;;;;;;6.35;5.05;;;12.90;99.90;;;;;;5016428;28;20057;-70
2023/07/07 04:31:03;;;;;;;13.25;10.75;;;12.90;99.90;;;;;;5016306;28;20088;-71
2023/07/07 04:33:30;;;;;;;10.65;9.30;;;13.00;99.90;;;;;;5015719;28;20125;-70
2023/07/07 04:35:58;;;;;;;7.68;6.85;;;13.00;99.90;;;;;;5015937;28;20049;-69
2023/07/07 04:38:30;;;;;;;11.98;8.00;;;13.10;99.90;;;;;;5015391;28;20422;-70
2023/07/07 04:41:07;;;;;;;10.75;7.80;;;13.10;99.90;;;;;;5015776;28;20085;-71
2023/07/07 04:43:34;;;;;;;15.18;10.43;;;13.20;99.90;;;;;;5015688;28;20054;-71
2023/07/07 04:46:00;;;;;;;11.43;7.97;;;13.30;99.90;;;;;;5016224;28;20071;-70
2023/07/07 04:48:26;;;;;;;17.20;11.38;;;13.40;99.90;;;;;;5015672;28;20061;-70
2023/07/07 04:50:58;;;;;;;14.98;10.27;;;13.50;99.90;;;;;;5015608;28;20046;-71
2023/07/07 04:53:25;;;;;;;11.93;8.68;;;13.60;99.90;;;;;;4997861;28;20042;-71
2023/07/07 04:55:51;;;;;;;16.60;11.70;;;13.70;99.90;;;;;;5015466;28;20061;-71
2023/07/07 04:58:16;;;;;;;15.18;10.73;;;13.80;99.90;;;;;;5015353;28;20057;-71
2023/07/07 05:00:43;;;;;;;15.70;11.93;;;13.90;99.90;;;;;;4998147;28;20455;-70
2023/07/07 05:03:09;;;;;;;19.73;12.63;;;14.00;99.90;;;;;;5015779;28;20100;-70
2023/07/07 05:05:37;;;;;;;14.73;10.23;;;14.10;99.90;;;;;;5015203;28;20436;-71
2023/07/07 05:08:03;;;;;;;11.93;9.88;;;14.30;99.90;;;;;;5015423;28;20082;-70
2023/07/07 05:10:29;;;;;;;17.25;11.90;;;14.30;99.90;;;;;;4981429;28;20042;-70
2023/07/07 05:12:55;;;;;;;14.50;11.43;;;14.50;99.90;;;;;;5014488;28;20077;-71
2023/07/07 05:15:23;;;;;;;15.88;11.20;;;14.60;99.90;;;;;;5015096;28;20080;-70
2023/07/07 05:17:50;;;;;;;18.85;12.45;;;14.70;99.90;;;;;;4997743;28;20046;-70
2023/07/07 05:20:16;;;;;;;16.98;12.57;;;14.90;99.90;;;;;;4997429;28;20432;-70
2023/07/07 05:22:42;;;;;;;14.15;11.85;;;15.00;99.90;;;;;;5014044;28;20083;-71
2023/07/07 05:25:07;;;;;;;13.35;11.40;;;15.10;99.90;;;;;;5015200;28;20048;-72
2023/07/07 05:27:33;;;;;;;16.30;12.00;;;15.20;99.90;;;;;;5014869;28;20050;-70
2023/07/07 05:29:59;;;;;;;13.55;10.95;;;15.30;99.90;;;;;;5013286;28;20046;-70
2023/07/07 05:32:24;;;;;;;13.55;10.85;;;15.50;99.90;;;;;;5014914;28;20052;-70
2023/07/07 05:34:50;;;;;;;16.58;11.15;;;15.60;99.90;;;;;;5014846;28;20435;-70
2023/07/07 05:37:16;;;;;;;15.10;10.48;;;15.70;99.90;;;;;;5014673;28;20499;-70
2023/07/07 05:39:41;;;;;;;16.25;10.50;;;15.80;99.90;;;;;;5014753;28;20455;-71
2023/07/07 05:42:07;;;;;;;15.38;10.75;;;15.90;99.90;;;;;;5014783;28;20050;-71
2023/07/07 05:44:33;;;;;;;13.65;9.80;;;16.10;99.90;;;;;;5014443;28;20034;-70
2023/07/07 05:46:59;;;;;;;13.55;10.07;;;16.20;99.90;;;;;;4997239;28;20125;-70
2023/07/07 05:49:24;;;;;;;12.32;9.65;;;16.30;99.90;;;;;;5014924;28;20437;-70
2023/07/07 05:51:50;;;;;;;11.73;9.85;;;16.50;99.90;;;;;;5014611;28;20108;-71
2023/07/07 05:54:16;;;;;;;14.13;10.68;;;16.60;99.90;;;;;;5013774;28;20046;-70
2023/07/07 05:56:42;;;;;;;14.52;10.70;;;16.70;99.90;;;;;;5014144;28;20048;-71
2023/07/07 05:59:08;;;;;;;16.25;10.55;;;16.80;99.90;;;;;;5013072;28;20072;-70
2023/07/07 06:01:35;;;;;;;15.68;10.43;;;17.00;99.90;;;;;;4997002;28;20533;-70
2023/07/07 06:04:01;;;;;;;13.30;9.45;;;17.10;99.90;;;;;;5013763;28;20356;-71
2023/07/07 06:06:27;;;;;;;11.73;8.20;;;17.20;99.90;;;;;;5014169;28;20490;-70
2023/07/07 06:08:53;;;;;;;12.32;9.18;;;17.40;99.90;;;;;;5014140;28;20050;-70
2023/07/07 06:11:18;;;;;;;12.40;8.98;;;17.50;99.90;;;;;;5013888;28;20529;-70
2023/07/07 06:13:44;;;;;;;11.57;8.88;;;17.70;99.90;;;;;;5014103;28;20042;-70
2023/07/07 06:16:10;;;;;;;18.05;7.72;;;17.80;99.90;;;;;;5013661;28;20077;-71
2023/07/07 06:18:36;;;;;;;9.77;7.78;;;17.90;99.90;;;;;;5014053;28;20049;-70
2023/07/07 06:21:02;;;;;;;11.20;8.73;;;18.10;99.90;;;;;;4996684;28;20049;-70
2023/07/07 06:23:28;;;;;;;8.27;7.40;;;18.30;99.90;;;;;;5013359;28;20053;-70
2023/07/07 06:25:54;;;;;;;8.38;6.45;;;18.80;99.90;;;;;;5012528;28;20041;-70
2023/07/07 06:28:20;;;;;;;8.30;6.25;;;19.80;99.90;;;;;;5013670;28;20046;-71
2023/07/07 06:30:51;;;;;;;7.82;7.05;;;21.30;99.90;;;;;;5013677;28;20052;-71
2023/07/07 06:33:18;;;;;;;6.80;5.85;;;22.50;99.90;;;;;;5013699;28;20370;-71
2023/07/07 06:35:44;;;;;;;7.10;5.43;;;23.70;99.90;;;;;;5013554;28;20053;-71
2023/07/07 06:38:10;;;;;;;7.43;5.85;;;24.70;99.90;;;;;;4996306;28;20355;-71
2023/07/07 06:40:36;;;;;;;8.93;5.63;;;25.30;99.90;;;;;;4995974;28;20049;-71
2023/07/07 06:43:02;;;;;;;6.53;5.45;;;26.10;99.70;;;;;;5013436;28;20038;-71
2023/07/07 06:45:28;;;;;;;5.65;4.32;;;26.60;97.10;;;;;;5013508;28;20049;-71
2023/07/07 06:47:54;;;;;;;9.18;5.13;;;27.10;97.70;;;;;;5013399;28;20088;-71
2023/07/07 06:50:31;;;;;;;7.47;4.55;;;27.40;96.70;;;;;;5013269;28;20045;-71
2023/07/07 06:52:57;;;;;;;6.72;4.30;;;27.80;93.70;;;;;;5013156;28;20048;-71
2023/07/07 06:55:23;;;;;;;12.00;5.22;;;28.20;95.50;;;;;;5013252;28;20050;-71
2023/07/07 06:57:49;;;;;;;6.15;4.45;;;28.30;94.80;;;;;;5013072;28;20111;-71
2023/07/07 07:00:16;;;;;;;5.57;4.57;;;28.80;94.10;;;;;;5013097;28;20455;-71
2023/07/07 07:02:43;;;;;;;5.70;4.20;;;29.30;93.90;;;;;;5012925;28;20089;-71
2023/07/07 07:05:09;;;;;;;6.65;3.78;;;29.60;93.40;;;;;;5013046;28;20188;-71
2023/07/07 07:07:34;;;;;;;3.85;3.42;;;29.90;92.80;;;;;;5013505;28;20514;-71
2023/07/07 07:10:02;;;;;;;5.00;3.78;;;30.00;92.20;;;;;;5013097;28;20045;-71
2023/07/07 07:12:31;;;;;;;3.97;3.50;;;29.90;91.10;;;;;;5013736;28;20053;-71
2023/07/07 07:14:57;;;;;;;6.97;3.83;;;29.80;87.90;;;;;;5013008;28;20046;-71
2023/07/07 07:17:24;;;;;;;7.78;3.80;;;29.50;87.30;;;;;;5012998;28;20045;-71
2023/07/07 07:19:49;;;;;;;5.07;3.13;;;29.50;90.20;;;;;;5012928;28;20080;-71
2023/07/07 07:22:15;;;;;;;3.97;3.33;;;29.30;90.30;;;;;;5012928;28;20655;-71
2023/07/07 07:24:41;;;;;;;4.60;2.70;;;29.70;90.00;;;;;;5012842;28;20067;-71
2023/07/07 07:27:07;;;;;;;3.58;3.03;;;30.10;89.60;;;;;;5012894;28;20057;-71
2023/07/07 07:29:33;;;;;;;6.43;3.70;;;30.30;88.80;;;;;;5013173;28;20538;-71
2023/07/07 07:31:59;;;;;;;5.68;3.28;;;30.50;86.50;;;;;;4995764;28;20129;-73
2023/07/07 07:34:30;;;;;;;5.05;3.00;;;30.30;87.10;;;;;;5012713;28;20049;-71
2023/07/07 07:36:57;;;;;;;3.10;2.60;;;30.60;82.60;;;;;;5012255;28;20520;-72
2023/07/07 07:39:23;;;;;;;7.20;3.33;;;30.60;85.90;;;;;;4995419;28;20116;-71
2023/07/07 07:41:51;;;;;;;4.88;2.67;;;30.40;84.50;;;;;;5012663;28;20081;-71
2023/07/07 07:44:18;;;;;;;5.35;3.42;;;30.50;84.30;;;;;;5012713;28;20068;-71
2023/07/07 07:46:45;;;;;;;4.82;2.70;;;30.50;81.40;;;;;;4995759;28;20065;-71
2023/07/07 07:49:11;;;;;;;6.18;2.80;;;30.70;81.80;;;;;;5012677;28;20054;-71
2023/07/07 07:51:38;;;;;;;3.63;2.30;;;31.30;82.60;;;;;;4995829;28;20104;-71
2023/07/07 07:54:12;;;;;;;3.50;2.88;;;31.70;82.50;;;;;;5012830;28;20081;-71
2023/07/07 07:56:38;;;;;;;3.85;2.50;;;31.80;81.00;;;;;;5012635;28;20054;-71
2023/07/07 07:59:05;;;;;;;4.35;2.70;;;31.50;80.20;;;;;;5012173;28;20068;-72
2023/07/07 08:01:31;;;;;;;4.45;2.67;;;31.70;80.50;;;;;;5012485;28;20112;-71
2023/07/07 08:03:57;;;;;;;3.90;2.88;;;32.10;80.80;;;;;;5012520;28;20059;-72
2023/07/07 08:06:23;;;;;;;6.30;2.60;;;32.40;80.50;;;;;;5011398;28;20077;-71
2023/07/07 08:08:48;;;;;;;3.88;2.58;;;32.50;79.80;;;;;;5012467;28;20428;-71
2023/07/07 08:11:18;;;;;;;4.50;2.67;;;32.80;79.40;;;;;;5012416;28;20046;-72
2023/07/07 08:13:44;;;;;;;3.85;2.70;;;32.60;77.40;;;;;;5012274;28;20038;-72
2023/07/07 08:16:10;;;;;;;4.68;2.63;;;33.00;78.60;;;;;;5012079;28;20042;-71
2023/07/07 08:18:40;;;;;;;4.05;2.75;;;32.80;77.40;;;;;;4995080;28;20054;-72
2023/07/07 08:21:06;;;;;;;5.85;2.30;;;33.00;75.50;;;;;;5012363;28;20046;-72
2023/07/07 08:23:32;;;;;;;4.03;2.97;;;32.60;77.10;;;;;;5011198;28;20046;-72
2023/07/07 08:25:58;;;;;;;3.55;2.38;;;33.00;77.00;;;;;;5012292;28;20058;-74
2023/07/07 08:28:24;;;;;;;5.45;2.60;;;33.10;76.00;;;;;;5012257;28;20049;-71
2023/07/07 08:30:49;;;;;;;3.75;2.78;;;32.60;75.00;;;;;;5012131;28;20046;-71
2023/07/07 08:33:16;;;;;;;4.13;2.67;;;32.30;73.80;;;;;;5012402;28;20518;-71
2023/07/07 08:35:41;;;;;;;4.40;2.58;;;32.10;74.40;;;;;;5012689;28;20065;-71
2023/07/07 08:38:07;;;;;;;5.05;2.20;;;32.40;73.00;;;;;;5012315;28;20506;-71
2023/07/07 08:40:46;;;;;;;2.75;2.08;;;32.50;73.90;;;;;;5012047;28;20418;-71
2023/07/07 08:43:12;;;;;;;4.25;2.35;;;32.70;73.40;;;;;;5012189;28;20038;-71
2023/07/07 08:45:45;;;;;;;4.03;1.90;;;32.90;73.30;;;;;;5012007;28;20050;-71
2023/07/07 08:48:34;;;;;;;4.22;2.10;;;33.30;71.80;;;;;;5013624;28;20042;-72
2023/07/07 08:51:04;;;;;;;2.53;1.88;;;33.10;70.40;;;;;;4998940;28;20439;-71
2023/07/07 08:53:53;;;;;;;3.17;2.03;;;33.40;71.30;;;;;;5015563;28;20093;-71
2023/07/07 08:56:30;;;;;;;3.50;2.20;;;33.40;68.40;;;;;;4998899;28;20042;-72
2023/07/07 08:59:17;;;;;;;3.13;1.85;;;33.10;67.60;;;;;;5018389;28;20070;-71
2023/07/07 09:02:20;;;;;;;2.90;1.98;;;32.70;68.30;;;;;;5017444;28;20061;-72
2023/07/07 09:04:48;;;;;;;3.25;1.95;;;33.30;68.70;;;;;;5017497;28;20137;-72
2023/07/07 09:07:23;;;;;;;3.72;2.28;;;33.00;68.40;;;;;;5016510;28;20057;-71
2023/07/07 09:10:10;;;;;;;2.33;1.80;;;33.30;69.50;;;;;;5016741;28;20422;-71
2023/07/07 09:12:48;;;;;;;3.38;2.22;;;33.20;66.40;;;;;;5015760;28;20042;-72
2023/07/07 09:15:38;;;;;;;3.67;1.98;;;33.40;68.00;;;;;;5015253;28;20046;-71
2023/07/07 09:18:13;;;;;;;4.03;2.10;;;33.40;66.10;;;;;;4998282;28;20125;-70
2023/07/07 09:20:39;;;;;;;3.95;2.00;;;33.60;65.70;;;;;;5015488;28;20082;-72
2023/07/07 09:23:17;;;;;;;4.68;2.22;;;33.50;66.80;;;;;;5015252;28;20042;-72
2023/07/07 09:25:55;;;;;;;2.95;1.90;;;33.50;64.90;;;;;;4997268;28;20450;-69
2023/07/07 09:28:21;;;;;;;3.60;1.92;;;33.30;66.50;;;;;;5015492;28;20053;-68
2023/07/07 09:30:50;;;;;;;4.22;2.13;;;33.40;67.90;;;;;;5015296;28;20045;-69
2023/07/07 09:33:19;;;;;;;3.97;2.55;;;33.10;67.30;;;;;;5015103;28;20046;-69
2023/07/07 09:35:59;;;;;;;3.25;1.92;;;33.30;67.70;;;;;;4997634;28;20496;-69
2023/07/07 09:39:01;;;;;;;4.95;2.45;;;33.20;67.00;;;;;;5015890;28;20050;-71
2023/07/07 09:41:30;;;;;;;3.50;1.95;;;33.30;66.20;;;;;;4999511;28;20116;-72
2023/07/07 09:44:02;;;;;;;2.70;1.80;;;33.30;67.10;;;;;;5015236;28;20076;-71
2023/07/07 09:46:31;;;;;;;;;;;33.00;66.10;;;;;;5015153;28;20057;-72
2023/07/07 09:49:26;;;;;;;2.35;1.73;;;32.90;64.50;;;;;;4997099;28;20258;-72
2023/07/07 09:52:30;;;;;;;2.72;2.05;;;33.10;68.10;;;;;;5014484;28;20050;-71
2023/07/07 09:54:59;;;;;;;4.07;2.13;;;33.00;65.40;;;;;;5015012;28;20054;-72
2023/07/07 09:57:28;;;;;;;3.53;2.00;;;33.00;68.60;;;;;;5014551;28;20050;-71
2023/07/07 09:59:56;;;;;;;2.05;1.85;;;33.10;66.60;;;;;;4996859;28;20064;-71
2023/07/07 10:05:09;;;;;;;3.20;1.80;;;33.10;67.00;;;;;;5014326;28;20053;-71
2023/07/07 10:07:38;;;;;;;2.30;1.88;;;33.40;68.00;;;;;;5013551;28;20088;-71
2023/07/07 10:10:06;;;;;;;3.55;1.90;;;33.50;67.70;;;;;;5013818;28;20375;-71
2023/07/07 10:12:32;;;;;;;3.03;2.28;;;33.70;66.40;;;;;;4996907;28;20471;-71
2023/07/07 10:14:58;;;;;;;2.20;2.00;;;33.40;66.10;;;;;;5014092;28;20107;-71
2023/07/07 10:17:45;;;;;;;3.22;1.95;;;33.30;66.80;;;;;;5014065;28;20042;-71
2023/07/07 10:20:10;;;;;;;4.03;2.50;;;33.20;65.60;;;;;;5014067;28;20049;-71
2023/07/07 10:22:38;;;;;;;3.58;2.40;;;33.20;65.80;;;;;;5013888;28;20375;-71
2023/07/07 10:25:04;;;;;;;3.25;2.17;;;33.10;66.70;;;;;;5013824;28;20478;-70
2023/07/07 10:27:30;;;;;;;6.57;2.40;;;33.10;67.90;;;;;;5013789;28;20142;-71
2023/07/07 10:30:04;;;;;;;4.47;2.20;;;33.20;67.10;;;;;;5014484;28;20462;-71
2023/07/07 10:32:30;;;;;;;3.60;2.13;;;33.40;65.50;;;;;;5014085;28;20544;-71
2023/07/07 10:35:02;;;;;;;2.03;1.83;;;33.20;67.30;;;;;;5013719;28;20471;-71
2023/07/07 10:37:33;;;;;;;3.90;2.25;;;33.30;66.90;;;;;;5013982;28;20081;-70
2023/07/07 10:40:00;;;;;;;3.40;2.42;;;33.20;66.30;;;;;;5013639;28;20086;-70
2023/07/07 10:42:28;;;;;;;3.67;2.20;;;33.00;65.00;;;;;;5013954;28;20058;-70
2023/07/07 10:44:55;;;;;;;3.28;2.20;;;32.70;65.20;;;;;;5013615;28;20129;-70
2023/07/07 10:47:29;;;;;;;3.05;2.13;;;32.40;65.40;;;;;;4995998;28;20053;-70
2023/07/07 10:49:58;;;;;;;4.70;2.15;;;32.30;66.00;;;;;;5013475;28;20049;-70
2023/07/07 10:53:00;;;;;;;3.38;2.10;;;32.10;66.10;;;;;;4996777;28;20379;-70
2023/07/07 10:55:31;;;;;;;3.10;2.22;;;32.10;65.90;;;;;;5013888;28;20075;-70
2023/07/07 10:58:15;;;;;;;3.60;2.63;;;31.90;65.80;;;;;;5013416;28;20115;-69
2023/07/07 11:01:09;;;;;;;3.00;2.00;;;31.70;64.90;;;;;;5013544;28;20046;-70
2023/07/07 11:03:46;;;;;;;3.58;3.28;;;31.50;65.40;;;;;;5013563;28;20121;-70
2023/07/07 11:06:31;;;;;;;3.13;2.00;;;31.10;65.70;;;;;;5013269;28;20087;-70
2023/07/07 11:09:05;;;;;;;8.30;2.85;;;30.90;68.30;;;;;;5013478;28;20132;-70
2023/07/07 11:12:05;;;;;;;6.75;2.40;;;30.70;65.70;;;;;;5012507;28;20045;-70
2023/07/07 11:14:36;;;;;;;3.88;2.20;;;30.50;66.20;;;;;;5013462;28;20121;-70
2023/07/07 11:17:11;;;;;;;3.38;2.40;;;30.40;66.30;;;;;;5013323;28;20046;-70
2023/07/07 11:20:02;;;;;;;3.88;2.28;;;30.10;65.10;;;;;;5013120;28;20050;-70
2023/07/07 11:22:37;;;;;;;5.07;2.40;;;29.80;65.40;;;;;;5013337;28;20054;-69
2023/07/07 11:25:15;;;;;;;5.15;2.40;;;29.80;64.90;;;;;;5013311;28;20144;-69
2023/07/07 11:28:22;;;;;;;4.60;2.13;;;29.70;64.70;;;;;;5012946;28;20494;-70
2023/07/07 11:31:24;;;;;;;3.13;2.58;;;29.70;63.70;;;;;;5012920;28;20095;-69
2023/07/07 11:33:56;;;;;;;6.25;2.33;;;29.70;63.90;;;;;;5013256;28;20418;-69
2023/07/07 11:36:49;;;;;;;10.43;3.08;;;29.40;63.90;;;;;;5012414;28;20045;-69
2023/07/07 11:39:26;;;;;;;;;;;29.40;65.50;;;;;;4980247;28;20133;-69
2023/07/07 11:41:55;;;;;;;5.80;2.80;;;29.40;66.70;;;;;;4995886;28;19922;-69
2023/07/07 11:44:29;;;;;;;3.22;2.28;;;29.50;64.80;;;;;;4995648;28;20068;-70
2023/07/07 11:47:07;;;;;;;4.20;2.53;;;29.50;64.90;;;;;;4995164;28;20058;-69
2023/07/07 11:49:32;;;;;;;2.50;2.10;;;29.50;64.80;;;;;;5012645;28;20088;-70
2023/07/07 11:52:10;;;;;;;2.72;2.38;;;29.40;64.20;;;;;;5012445;28;20053;-69
2023/07/07 11:55:12;;;;;;;3.00;2.70;;;29.30;63.80;;;;;;5012604;28;20100;-69
2023/07/07 11:57:49;;;;;;;3.10;2.60;;;29.40;65.50;;;;;;5013054;28;20065;-69
2023/07/07 12:00:50;;;;;;;5.53;2.47;;;29.30;64.80;;;;;;5012521;28;20478;-70
2023/07/07 12:03:53;;;;;;;10.20;3.00;;;29.30;65.20;;;;;;5013092;28;20050;-70
2023/07/07 12:06:48;;;;;;;2.67;2.47;;;29.30;64.50;;;;;;5012478;28;20485;-69
2023/07/07 12:09:28;;;;;;;3.95;2.90;;;29.10;64.60;;;;;;5012698;28;20054;-69
2023/07/07 12:12:06;;;;;;;3.85;2.80;;;29.10;65.20;;;;;;5012049;28;20042;-69
2023/07/07 12:14:40;;;;;;;7.82;2.63;;;29.10;63.30;;;;;;5012389;28;20085;-70
2023/07/07 12:17:13;;;;;;;3.50;2.42;;;29.00;62.60;;;;;;5012170;28;20058;-70
2023/07/07 12:19:47;;;;;;;2.85;2.53;;;28.80;61.80;;;;;;5012264;28;20105;-70
2023/07/07 12:22:21;;;;;;;3.78;2.30;;;28.80;62.60;;;;;;5014432;28;20148;-72
2023/07/07 12:25:04;;;;;;;3.63;2.30;;;28.80;63.30;;;;;;4998435;28;20084;-74
2023/07/07 12:27:33;;;;;;;3.50;2.22;;;29.00;63.20;;;;;;5016187;28;20096;-71
2023/07/07 12:30:00;;;;;;;4.25;2.13;;;29.20;63.50;;;;;;5015932;28;20053;-70
2023/07/07 12:32:26;;;;;;;3.97;2.70;;;29.30;63.40;;;;;;5015530;28;20052;-71
2023/07/07 12:35:12;;;;;;;6.40;2.50;;;29.40;63.50;;;;;;5015861;28;20196;-71
2023/07/07 12:37:38;;;;;;;3.55;2.47;;;29.50;62.00;;;;;;5015866;28;20057;-71
2023/07/07 12:40:10;;;;;;;3.15;2.50;;;29.40;61.20;;;;;;5015466;28;20121;-71
2023/07/07 12:42:39;;;;;;;10.97;3.70;;;29.40;62.30;;;;;;5015389;28;20053;-71
2023/07/07 12:45:18;;;;;;;4.63;2.65;;;29.40;62.60;;;;;;5015329;28;20058;-71
2023/07/07 12:47:48;;;;;;;8.35;3.53;;;29.40;62.60;;;;;;5015285;28;20061;-71
2023/07/07 12:50:26;;;;;;;3.75;2.50;;;29.40;62.60;;;;;;5015633;28;20045;-71
2023/07/07 12:52:58;;;;;;;2.53;2.20;;;29.40;62.60;;;;;;5015151;28;20121;-70
2023/07/07 12:55:28;;;;;;;4.80;2.72;;;29.10;62.70;;;;;;5015059;28;20077;-70
2023/07/07 12:58:02;;;;;;;3.45;2.70;;;29.10;62.10;;;;;;5014903;28;20066;-71
2023/07/07 13:01:02;;;;;;;3.40;2.58;;;29.10;63.20;;;;;;5015040;28;20045;-71
2023/07/07 13:03:27;;;;;;;3.00;2.22;;;29.20;64.10;;;;;;5014886;28;20041;-71
2023/07/07 13:05:53;;;;;;;5.00;3.30;;;29.30;63.70;;;;;;5015076;28;20095;-71
2023/07/07 13:15:43;;;;;;;4.88;2.83;;;29.30;63.20;;;;;;5015180;28;20052;-72